Time;durP1;ratioP1;P1;durP2;ratioP2;P2;SDS_P1;SDS_P2;PMS_P1;PMS_P2;Temp;Humidity;BMP_temperature;BMP_pressure;BME280_temperature;BME280_humidity;BME280_pressure;Samples;Min_cycle;Max_cycle;Signal;HPM_P1;HPM_P2
2021/08/31 00:00:16;;;;;;;;;18.75;14.00;;;;;18.53;78.58;101938.91;5104730;27;45528;-62
2021/08/31 00:02:42;;;;;;;;;18.25;16.50;;;;;18.52;78.96;101938.06;5120222;27;45292;-62
2021/08/31 00:05:14;;;;;;;;;14.75;13.50;;;;;18.47;79.07;101940.03;5121915;27;46946;-62
2021/08/31 00:07:40;;;;;;;;;18.75;15.00;;;;;18.43;79.28;101948.97;5122824;27;45329;-62
2021/08/31 00:10:11;;;;;;;;;15.00;14.00;;;;;18.44;78.79;101947.22;5123390;27;45336;-62
2021/08/31 00:12:38;;;;;;;;;15.75;12.75;;;;;18.45;78.67;101952.41;5123103;27;45400;-62
2021/08/31 00:15:05;;;;;;;;;17.25;13.25;;;;;18.48;79.36;101951.41;5123213;27;46440;-62
2021/08/31 00:17:30;;;;;;;;;14.00;14.00;;;;;18.46;78.87;101953.25;5122925;27;45811;-61
2021/08/31 00:19:56;;;;;;;;;19.50;17.75;;;;;18.45;78.51;101943.66;5123427;27;45511;-60
2021/08/31 00:22:24;;;;;;;;;17.75;14.25;;;;;18.44;78.22;101945.44;5120900;27;45343;-61
2021/08/31 00:24:49;;;;;;;;;13.00;12.25;;;;;18.40;78.30;101948.22;5123094;27;45260;-61
2021/08/31 00:27:15;;;;;;;;;20.50;14.50;;;;;18.38;78.47;101944.81;5122415;27;45169;-61
2021/08/31 00:29:40;;;;;;;;;14.00;12.00;;;;;18.31;79.29;101941.56;5123133;27;45750;-61
2021/08/31 00:32:06;;;;;;;;;10.75;9.50;;;;;18.33;78.96;101954.66;5122942;27;45405;-61
2021/08/31 00:34:34;;;;;;;;;14.75;13.50;;;;;18.31;79.39;101938.94;5122887;27;45392;-61
2021/08/31 00:36:59;;;;;;;;;17.25;13.25;;;;;18.32;78.78;101937.16;5122648;27;45704;-61
2021/08/31 00:39:24;;;;;;;;;14.50;12.00;;;;;18.36;78.97;101941.38;5122718;27;45398;-61
2021/08/31 00:41:50;;;;;;;;;16.25;14.00;;;;;18.34;79.06;101949.34;5122459;27;45449;-60
2021/08/31 00:44:19;;;;;;;;;13.50;12.25;;;;;18.35;79.00;101953.69;5122600;27;46385;-61
2021/08/31 00:46:46;;;;;;;;;11.75;11.00;;;;;18.36;78.68;101954.53;5120414;27;45274;-60
2021/08/31 00:49:11;;;;;;;;;14.25;7.00;;;;;18.37;78.90;101957.09;5122948;27;45347;-60
2021/08/31 00:51:37;;;;;;;;;15.25;10.25;;;;;18.35;79.14;101951.06;5121251;27;46380;-60
2021/08/31 00:54:05;;;;;;;;;11.75;11.00;;;;;18.36;78.98;101957.16;5122736;27;46177;-60
2021/08/31 00:56:31;;;;;;;;;11.75;11.00;;;;;18.36;78.82;101957.16;5103451;27;45447;-59
2021/08/31 00:58:56;;;;;;;;;12.50;10.50;;;;;18.36;78.44;101944.88;5121962;27;45394;-60
2021/08/31 01:01:21;;;;;;;;;11.00;8.00;;;;;18.34;78.64;101941.44;5120602;27;45314;-60
2021/08/31 01:03:47;;;;;;;;;11.50;9.50;;;;;18.34;78.69;101937.97;5121088;27;47059;-59
2021/08/31 01:06:12;;;;;;;;;13.75;11.00;;;;;18.36;78.53;101957.16;5121728;27;45426;-60
2021/08/31 01:08:38;;;;;;;;;12.50;8.75;;;;;18.37;78.50;101943.94;5122576;27;45596;-61
2021/08/31 01:11:04;;;;;;;;;9.00;7.00;;;;;18.41;78.33;101948.16;5121377;27;45322;-63
2021/08/31 01:13:36;;;;;;;;;13.00;11.75;;;;;18.32;77.82;101950.31;5120845;27;46510;-61
2021/08/31 01:16:03;;;;;;;;;10.50;8.75;;;;;18.26;77.91;101948.81;5120645;27;45404;-61
2021/08/31 01:18:29;;;;;;;;;9.00;9.00;;;;;18.24;78.35;101946.25;5121154;27;45319;-61
2021/08/31 01:20:57;;;;;;;;;13.00;9.75;;;;;18.23;78.39;101951.56;5120126;27;45331;-61
2021/08/31 01:23:25;;;;;;;;;12.00;12.00;;;;;18.22;78.18;101955.97;5118239;27;45547;-61
2021/08/31 01:25:52;;;;;;;;;10.00;8.75;;;;;18.20;78.67;101965.66;5120668;27;45469;-61
2021/08/31 01:28:20;;;;;;;;;11.25;9.00;;;;;18.14;78.77;101958.03;5121710;27;45381;-60
2021/08/31 01:30:47;;;;;;;;;6.50;6.50;;;;;18.11;78.47;101952.03;5120629;27;45388;-60
2021/08/31 01:33:17;;;;;;;;;9.00;8.00;;;;;18.09;78.89;101956.50;5120651;27;48562;-61
2021/08/31 01:35:45;;;;;;;;;9.00;7.75;;;;;18.07;79.06;101955.72;5121788;27;45500;-61
2021/08/31 01:38:11;;;;;;;;;9.75;9.50;;;;;18.03;79.68;101954.13;5121594;27;45535;-61
2021/08/31 01:40:36;;;;;;;;;11.50;9.00;;;;;17.98;79.07;101951.66;5118851;27;45403;-62
2021/08/31 01:43:02;;;;;;;;;9.00;8.50;;;;;17.93;78.14;101956.25;5120952;27;45363;-62
2021/08/31 01:45:28;;;;;;;;;10.50;10.00;;;;;17.90;78.51;101949.34;5121069;27;45981;-62
2021/08/31 01:47:53;;;;;;;;;11.50;6.50;;;;;17.86;79.31;101952.16;5120252;27;45477;-62
2021/08/31 01:50:19;;;;;;;;;12.50;12.00;;;;;17.80;79.16;101947.97;5121547;27;45442;-62
2021/08/31 01:52:44;;;;;;;;;12.25;9.75;;;;;17.77;78.97;101953.34;5120553;27;45371;-61
2021/08/31 01:55:10;;;;;;;;;8.75;8.75;;;;;17.77;79.38;101955.97;5121166;27;45847;-61
2021/08/31 01:57:35;;;;;;;;;9.00;6.00;;;;;17.74;79.96;101948.19;5100860;27;45654;-61
2021/08/31 02:00:02;;;;;;;;;6.75;6.75;;;;;17.69;80.36;101950.16;5117334;27;45531;-61
2021/08/31 02:02:27;;;;;;;;;9.25;8.00;;;;;17.67;80.29;101959.84;5117886;27;46386;-60
2021/08/31 02:04:52;;;;;;;;;8.00;8.00;;;;;17.68;80.25;101958.97;5118181;27;45430;-60
2021/08/31 02:07:18;;;;;;;;;12.25;10.00;;;;;17.70;80.21;101951.88;5080746;27;46010;-61
2021/08/31 02:09:43;;;;;;;;;11.50;10.75;;;;;17.73;80.64;101957.00;5077401;27;46184;-61
2021/08/31 02:12:09;;;;;;;;;8.25;7.25;;;;;17.77;80.59;101963.84;5077789;28;46755;-61
2021/08/31 02:14:35;;;;;;;;;12.00;9.25;;;;;17.80;79.68;101961.09;5079281;28;45432;-61
2021/08/31 02:17:00;;;;;;;;;10.00;9.00;;;;;17.81;80.20;101960.19;5094958;27;45462;-61
2021/08/31 02:19:25;;;;;;;;;12.50;9.50;;;;;17.77;80.54;101960.38;5078455;28;45655;-62
2021/08/31 02:21:51;;;;;;;;;11.25;10.00;;;;;17.78;79.82;101960.31;5079162;27;46563;-62
2021/08/31 02:24:16;;;;;;;;;10.00;9.00;;;;;17.80;79.97;101958.47;5079108;27;45777;-62
2021/08/31 02:26:42;;;;;;;;;10.50;9.00;;;;;17.82;81.43;101964.56;5079151;27;45659;-62
2021/08/31 02:29:07;;;;;;;;;9.25;8.00;;;;;17.80;80.73;101958.47;5078181;27;45529;-62
2021/08/31 02:31:35;;;;;;;;;9.50;8.25;;;;;17.81;80.43;101969.84;5079359;27;45434;-62
2021/08/31 02:34:00;;;;;;;;;9.50;8.25;;;;;17.83;80.32;101968.06;5079100;27;45421;-62
2021/08/31 02:36:26;;;;;;;;;9.25;8.00;;;;;17.83;80.38;101968.91;5078919;28;45495;-62
2021/08/31 02:38:51;;;;;;;;;12.75;8.00;;;;;17.80;81.17;101976.03;5078913;27;45356;-61
2021/08/31 02:41:17;;;;;;;;;10.75;10.75;;;;;17.76;80.51;101961.28;5076718;28;47177;-61
2021/08/31 02:43:42;;;;;;;;;12.50;11.25;;;;;17.78;80.65;101960.31;5078037;27;45230;-62
2021/08/31 02:46:08;;;;;;;;;8.75;6.75;;;;;17.84;80.71;101965.34;5079859;27;45307;-62
2021/08/31 02:48:33;;;;;;;;;12.25;9.25;;;;;17.86;80.69;101962.66;5080157;27;45261;-62
2021/08/31 02:50:58;;;;;;;;;12.50;9.50;;;;;17.86;80.63;101963.53;5079063;28;46946;-62
2021/08/31 02:53:24;;;;;;;;;13.00;10.25;;;;;17.90;80.78;101962.47;5080271;27;45269;-61
2021/08/31 02:55:49;;;;;;;;;13.00;9.50;;;;;17.92;80.15;101959.78;5075422;28;45249;-61
2021/08/31 02:58:14;;;;;;;;;10.50;9.75;;;;;17.96;80.09;101960.53;5079241;28;45215;-61
2021/08/31 03:00:42;;;;;;;;;11.00;8.50;;;;;17.96;79.87;101948.22;5091803;27;48438;-62
2021/08/31 03:03:09;;;;;;;;;11.75;7.75;;;;;18.02;79.88;101941.88;5079616;28;45533;-62
2021/08/31 03:05:34;;;;;;;;;10.00;8.25;;;;;18.02;79.88;101942.75;5096222;27;45380;-61
2021/08/31 03:08:00;;;;;;;;;11.00;9.75;;;;;18.03;79.68;101940.97;5098440;27;45655;-62
2021/08/31 03:10:25;;;;;;;;;10.50;9.50;;;;;18.04;80.02;101940.91;5100327;27;46693;-62
2021/08/31 03:12:50;;;;;;;;;11.00;8.00;;;;;18.03;79.49;101943.59;5100116;27;45256;-62
2021/08/31 03:15:16;;;;;;;;;13.25;12.00;;;;;18.02;79.58;101950.66;5100697;27;45305;-61
2021/08/31 03:17:41;;;;;;;;;13.25;9.25;;;;;18.01;80.15;101946.28;5100084;27;45633;-62
2021/08/31 03:20:07;;;;;;;;;12.25;10.75;;;;;17.99;79.75;101945.47;5100575;27;45424;-61
2021/08/31 03:22:32;;;;;;;;;12.00;10.75;;;;;17.96;79.89;101944.75;5100271;27;45222;-62
2021/08/31 03:24:58;;;;;;;;;12.25;9.00;;;;;17.92;79.85;101947.50;5116237;27;45467;-62
2021/08/31 03:27:23;;;;;;;;;12.50;10.50;;;;;17.96;79.65;101944.75;5097677;27;45530;-62
2021/08/31 03:29:48;;;;;;;;;13.75;11.25;;;;;17.97;79.23;101954.34;5100508;27;47359;-61
2021/08/31 03:32:14;;;;;;;;;13.75;8.00;;;;;17.92;80.13;101947.50;5101814;27;45372;-61
2021/08/31 03:34:39;;;;;;;;;15.25;10.50;;;;;17.90;79.95;101951.97;5103209;27;45408;-61
2021/08/31 03:37:05;;;;;;;;;16.00;13.00;;;;;17.90;80.73;101959.00;5102233;27;45437;-61
2021/08/31 03:39:30;;;;;;;;;13.00;10.50;;;;;17.88;79.99;101951.16;5102199;27;46453;-61
2021/08/31 03:41:56;;;;;;;;;15.75;13.50;;;;;17.92;80.25;101958.00;5103338;27;45277;-62
2021/08/31 03:44:21;;;;;;;;;13.50;12.00;;;;;17.94;79.76;101961.44;5103981;27;45519;-62
2021/08/31 03:46:46;;;;;;;;;17.50;14.00;;;;;17.95;79.72;101959.66;5103512;27;45223;-61
2021/08/31 03:49:12;;;;;;;;;15.00;12.75;;;;;17.97;80.22;101967.50;5103676;27;46342;-61
2021/08/31 03:51:37;;;;;;;;;14.50;11.75;;;;;17.94;79.44;101965.84;5101332;27;45279;-61
2021/08/31 03:54:02;;;;;;;;;13.00;12.75;;;;;17.92;80.04;101968.53;5101233;27;45914;-61
2021/08/31 03:56:28;;;;;;;;;19.00;13.00;;;;;17.96;80.42;101965.78;5100817;27;45511;-61
2021/08/31 03:58:53;;;;;;;;;18.75;15.00;;;;;18.00;80.08;101967.38;5100944;27;45420;-61
2021/08/31 04:01:18;;;;;;;;;16.75;14.25;;;;;17.98;79.71;101972.69;5100788;27;45444;-61
2021/08/31 04:03:44;;;;;;;;;14.75;12.25;;;;;17.96;79.89;101973.69;5100828;27;45509;-62
2021/08/31 04:06:09;;;;;;;;;17.00;11.75;;;;;17.94;80.32;101977.22;5105968;27;45934;-61
2021/08/31 04:08:34;;;;;;;;;18.50;14.00;;;;;17.94;79.99;101973.75;5123274;27;46248;-61
2021/08/31 04:11:00;;;;;;;;;14.75;12.25;;;;;17.98;80.13;101979.72;5104476;27;45270;-61
2021/08/31 04:13:25;;;;;;;;;13.00;12.00;;;;;17.99;79.86;101981.44;5123734;27;45533;-61
2021/08/31 04:15:51;;;;;;;;;20.75;17.00;;;;;18.02;79.71;101976.06;5123322;27;45406;-61
2021/08/31 04:18:16;;;;;;;;;18.75;13.25;;;;;18.03;79.99;101983.06;5123390;27;45329;-62
2021/08/31 04:20:41;;;;;;;;;17.00;14.50;;;;;18.03;79.80;101980.44;5122971;27;45406;-61
2021/08/31 04:23:07;;;;;;;;;16.25;13.00;;;;;17.99;80.10;101970.91;5122748;27;45544;-61
2021/08/31 04:25:32;;;;;;;;;16.50;12.75;;;;;18.01;80.35;101988.34;5120747;27;45459;-61
2021/08/31 04:27:58;;;;;;;;;19.25;16.25;;;;;18.00;79.88;101980.53;5121697;27;45448;-62
2021/08/31 04:30:23;;;;;;;;;22.50;19.00;;;;;18.00;80.50;101983.16;5122858;27;45460;-63
2021/08/31 04:32:49;;;;;;;;;17.00;14.75;;;;;18.02;80.14;101992.72;5123581;27;45316;-63
2021/08/31 04:35:14;;;;;;;;;20.00;16.00;;;;;18.01;80.49;101991.00;5122992;27;45471;-63
2021/08/31 04:37:39;;;;;;;;;17.00;16.00;;;;;18.02;80.42;101987.47;5123314;27;45283;-62
2021/08/31 04:40:05;;;;;;;;;18.00;16.75;;;;;18.04;80.48;101987.41;5122730;27;45412;-62
2021/08/31 04:42:31;;;;;;;;;18.50;15.25;;;;;18.04;80.12;101984.78;5122366;27;45225;-61
2021/08/31 04:44:56;;;;;;;;;18.00;14.25;;;;;18.05;80.31;101987.34;5123091;27;45237;-61
2021/08/31 04:47:22;;;;;;;;;19.50;15.00;;;;;18.06;80.04;101991.69;5123021;27;45537;-63
2021/08/31 04:49:47;;;;;;;;;16.75;15.25;;;;;18.06;80.29;101991.69;5123149;27;45431;-62
2021/08/31 04:52:13;;;;;;;;;20.00;18.50;;;;;18.06;80.45;101993.47;5123069;27;45442;-62
2021/08/31 04:54:39;;;;;;;;;25.50;20.25;;;;;18.09;79.63;101996.81;5122263;27;45439;-61
2021/08/31 04:57:04;;;;;;;;;23.50;20.50;;;;;18.11;80.45;101999.41;5122743;27;46072;-61
2021/08/31 04:59:30;;;;;;;;;17.25;16.75;;;;;18.11;80.19;102000.25;5122480;27;45320;-61
2021/08/31 05:01:55;;;;;;;;;23.00;18.25;;;;;18.10;79.96;102002.94;5123097;27;45316;-62
2021/08/31 05:04:21;;;;;;;;;18.50;17.00;;;;;18.07;80.54;102006.56;5122264;27;45321;-62
2021/08/31 05:06:46;;;;;;;;;23.00;19.00;;;;;18.06;80.38;102004.00;5121553;27;45999;-62
2021/08/31 05:09:11;;;;;;;;;25.25;19.00;;;;;18.03;81.05;101993.59;5122019;27;45246;-61
2021/08/31 05:11:37;;;;;;;;;19.00;17.50;;;;;18.03;80.74;101998.84;5122887;27;45328;-61
2021/08/31 05:14:03;;;;;;;;;21.75;19.75;;;;;18.06;80.50;101996.09;5122037;27;45597;-61
2021/08/31 05:16:29;;;;;;;;;21.25;20.75;;;;;18.07;80.98;101992.53;5120778;27;45650;-61
2021/08/31 05:18:56;;;;;;;;;20.00;18.75;;;;;18.12;80.59;102003.75;5103511;27;45302;-61
2021/08/31 05:21:21;;;;;;;;;18.25;16.25;;;;;18.09;81.04;101995.97;5121890;27;45330;-61
2021/08/31 05:23:47;;;;;;;;;24.25;19.75;;;;;18.09;80.54;101996.81;5121014;27;45491;-62
2021/08/31 05:26:12;;;;;;;;;30.00;20.25;;;;;18.10;81.23;102001.16;5121414;27;46572;-61
2021/08/31 05:28:38;;;;;;;;;24.25;20.00;;;;;18.08;81.42;102004.78;5119530;27;45491;-61
2021/08/31 05:31:03;;;;;;;;;22.00;17.25;;;;;18.09;80.33;101998.59;5120344;27;45624;-62
2021/08/31 05:33:28;;;;;;;;;29.25;19.75;;;;;18.11;80.86;102004.66;5120149;27;45695;-61
2021/08/31 05:35:54;;;;;;;;;22.50;18.25;;;;;18.10;81.33;102005.56;5119921;27;45521;-61
2021/08/31 05:38:19;;;;;;;;;27.00;21.25;;;;;18.08;80.75;102000.38;5119915;27;45388;-61
2021/08/31 05:40:44;;;;;;;;;27.00;21.75;;;;;18.12;80.98;102001.97;5119925;27;45338;-61
2021/08/31 05:43:10;;;;;;;;;24.25;23.50;;;;;18.11;80.26;102002.88;5101679;27;46075;-61
2021/08/31 05:45:35;;;;;;;;;26.75;22.00;;;;;18.11;80.62;102005.50;5122033;27;45320;-61
2021/08/31 05:48:00;;;;;;;;;28.00;20.75;;;;;18.10;80.97;101998.53;5103199;27;45781;-61
2021/08/31 05:50:26;;;;;;;;;26.50;23.25;;;;;18.09;81.69;102006.50;5121726;27;45475;-61
2021/08/31 05:52:51;;;;;;;;;25.75;21.25;;;;;18.06;81.81;102010.09;5121425;27;45447;-60
2021/08/31 05:55:17;;;;;;;;;26.75;20.00;;;;;18.03;82.17;102006.75;5121002;27;45362;-60
2021/08/31 05:57:43;;;;;;;;;26.50;23.25;;;;;18.05;81.38;102010.16;5121392;27;45322;-61
2021/08/31 06:00:10;;;;;;;;;27.75;21.75;;;;;18.08;81.66;102020.56;5121619;27;45452;-61
2021/08/31 06:02:38;;;;;;;;;22.75;20.50;;;;;18.09;81.99;102011.75;5121541;27;45229;-61
2021/08/31 06:05:04;;;;;;;;;32.50;22.75;;;;;18.10;81.99;102018.72;5121437;27;46181;-61
2021/08/31 06:07:29;;;;;;;;;25.75;21.50;;;;;18.11;81.84;102030.97;5121096;27;45415;-61
2021/08/31 06:09:55;;;;;;;;;33.00;25.25;;;;;18.09;81.48;102022.28;5121755;27;45421;-61
2021/08/31 06:12:20;;;;;;;;;32.25;23.75;;;;;18.09;82.19;102027.53;5121483;27;45293;-61
2021/08/31 06:14:45;;;;;;;;;25.25;23.75;;;;;18.10;81.20;102018.72;5121409;27;45340;-61
2021/08/31 06:17:11;;;;;;;;;33.50;26.50;;;;;18.06;82.17;102028.53;5121308;27;45310;-62
2021/08/31 06:19:37;;;;;;;;;26.00;22.50;;;;;18.04;82.32;102030.34;5121876;27;45311;-61
2021/08/31 06:22:04;;;;;;;;;31.75;25.50;;;;;18.05;82.13;102036.47;5102833;27;45511;-61
2021/08/31 06:24:29;;;;;;;;;35.00;30.00;;;;;18.07;81.68;102040.75;5102626;27;48423;-61
2021/08/31 06:26:55;;;;;;;;;23.75;19.50;;;;;18.05;82.25;102041.72;5120843;27;45431;-61
2021/08/31 06:29:20;;;;;;;;;23.50;21.75;;;;;18.07;81.91;102037.28;5120661;27;45364;-60
2021/08/31 06:31:45;;;;;;;;;31.50;27.25;;;;;18.02;82.99;102039.19;5120882;27;45222;-61
2021/08/31 06:34:11;;;;;;;;;27.50;23.50;;;;;18.07;82.80;102039.91;5120956;27;46211;-61
2021/08/31 06:36:36;;;;;;;;;33.25;24.50;;;;;18.09;82.22;102038.06;5121191;27;45208;-60
2021/08/31 06:39:02;;;;;;;;;22.00;20.25;;;;;18.10;82.31;102039.78;5121246;27;45210;-60
2021/08/31 06:41:28;;;;;;;;;28.75;23.75;;;;;18.13;82.04;102037.03;5120893;27;45382;-59
2021/08/31 06:43:53;;;;;;;;;28.50;26.75;;;;;18.17;82.08;102036.84;5120706;27;46261;-60
2021/08/31 06:46:18;;;;;;;;;30.00;26.25;;;;;18.19;81.84;102036.78;5120419;27;45435;-60
2021/08/31 06:48:45;;;;;;;;;31.75;27.50;;;;;18.26;81.30;102040.91;5119763;27;45335;-60
2021/08/31 06:51:14;;;;;;;;;32.75;27.75;;;;;18.25;81.70;102044.47;5102051;27;45346;-61
2021/08/31 06:53:41;;;;;;;;;29.00;24.75;;;;;18.26;81.78;102051.44;5120904;27;45241;-61
2021/08/31 06:56:07;;;;;;;;;33.25;28.50;;;;;18.30;81.44;102046.91;5101553;27;45250;-61
2021/08/31 06:58:32;;;;;;;;;25.25;19.75;;;;;18.30;81.44;102041.63;5101839;27;45262;-61
2021/08/31 07:00:58;;;;;;;;;35.25;28.50;;;;;18.32;81.36;102039.81;5120647;27;45410;-60
2021/08/31 07:03:23;;;;;;;;;29.75;27.00;;;;;18.35;81.38;102045.81;5120530;27;45573;-61
2021/08/31 07:05:49;;;;;;;;;30.25;24.50;;;;;18.39;81.22;102046.53;5119810;27;45514;-61
2021/08/31 07:08:14;;;;;;;;;31.00;25.25;;;;;18.46;81.24;102042.75;5120583;27;45320;-61
2021/08/31 07:10:39;;;;;;;;;29.25;27.75;;;;;18.55;80.66;102051.13;5100854;27;45469;-61
2021/08/31 07:13:05;;;;;;;;;30.50;25.50;;;;;18.63;80.73;102050.03;5101644;27;47967;-63
2021/08/31 07:15:31;;;;;;;;;34.00;28.25;;;;;18.67;80.57;102055.09;5120297;27;45309;-61
2021/08/31 07:17:56;;;;;;;;;31.25;25.75;;;;;18.74;80.06;102047.81;5120079;27;45213;-61
2021/08/31 07:20:30;;;;;;;;;31.50;28.25;;;;;18.82;80.50;102045.69;5101248;27;45458;-61
2021/08/31 07:22:55;;;;;;;;;37.50;29.25;;;;;18.90;79.57;102056.78;5101260;27;47121;-62
2021/08/31 07:25:22;;;;;;;;;35.50;28.25;;;;;18.98;79.88;102049.41;5119990;27;45321;-61
2021/08/31 07:27:48;;;;;;;;;32.50;27.50;;;;;18.96;79.19;102059.16;5119604;27;45359;-61
2021/08/31 07:30:13;;;;;;;;;35.50;28.75;;;;;18.91;78.63;102058.50;5119953;27;45427;-62
2021/08/31 07:32:39;;;;;;;;;32.75;28.50;;;;;18.98;78.97;102059.97;5120363;27;46240;-62
2021/08/31 07:35:05;;;;;;;;;38.50;31.00;;;;;19.02;78.61;102051.03;5119634;27;45417;-61
2021/08/31 07:37:30;;;;;;;;;33.50;28.25;;;;;19.06;78.80;102057.88;5120274;27;45276;-61
2021/08/31 07:39:56;;;;;;;;;33.00;29.50;;;;;19.05;78.50;102053.53;5120138;27;45507;-61
2021/08/31 07:42:21;;;;;;;;;41.00;31.50;;;;;19.11;78.44;102052.41;5120487;27;46090;-61
2021/08/31 07:44:47;;;;;;;;;29.75;26.00;;;;;19.21;78.33;102056.34;5119857;27;45260;-60
2021/08/31 07:47:13;;;;;;;;;34.75;30.25;;;;;19.32;77.98;102064.66;5120371;27;45240;-62
2021/08/31 07:49:42;;;;;;;;;31.25;26.50;;;;;19.42;77.48;102058.09;5119960;27;45538;-62
2021/08/31 07:52:08;;;;;;;;;34.00;30.00;;;;;19.56;77.05;102064.56;5120193;27;45388;-61
2021/08/31 07:54:34;;;;;;;;;32.25;27.50;;;;;19.64;77.16;102060.69;5119677;27;45282;-62
2021/08/31 07:56:59;;;;;;;;;39.00;29.00;;;;;19.65;75.59;102066.81;5119981;27;45389;-61
2021/08/31 07:59:24;;;;;;;;;36.00;31.75;;;;;19.70;75.07;102059.53;5119684;27;45365;-62
2021/08/31 08:01:50;;;;;;;;;35.00;27.25;;;;;19.73;75.66;102062.03;5120105;27;45431;-62
2021/08/31 08:04:15;;;;;;;;;31.75;29.25;;;;;19.78;75.19;102060.03;5101368;27;45429;-62
2021/08/31 08:06:42;;;;;;;;;31.50;25.25;;;;;19.86;73.91;102071.13;5101243;27;45237;-62
2021/08/31 08:09:07;;;;;;;;;31.00;26.75;;;;;19.91;74.44;102077.03;5119603;27;45228;-62
2021/08/31 08:11:33;;;;;;;;;30.25;28.75;;;;;19.92;72.81;102077.91;5119912;27;45666;-62
2021/08/31 08:13:58;;;;;;;;;34.50;29.50;;;;;19.99;74.04;102071.41;5119463;27;45353;-60
2021/08/31 08:16:23;;;;;;;;;31.00;30.00;;;;;20.18;74.19;102079.34;5121314;27;45646;-61
2021/08/31 08:18:50;;;;;;;;;32.25;24.75;;;;;20.40;73.75;102072.13;5123166;27;45520;-61
2021/08/31 08:21:16;;;;;;;;;29.50;26.50;;;;;20.54;72.71;102075.00;5123564;27;45576;-61
2021/08/31 08:23:41;;;;;;;;;31.25;26.50;;;;;20.66;70.86;102076.22;5122976;27;45423;-61
2021/08/31 08:26:08;;;;;;;;;31.75;26.50;;;;;20.63;71.44;102081.66;5104789;27;45339;-60
2021/08/31 08:28:36;;;;;;;;;29.75;23.25;;;;;20.70;71.32;102076.91;5122454;27;45214;-60
2021/08/31 08:31:01;;;;;;;;;31.25;23.00;;;;;20.71;70.25;102084.75;5123265;27;46697;-60
2021/08/31 08:33:26;;;;;;;;;37.00;31.25;;;;;20.77;70.45;102081.81;5123222;27;45204;-62
2021/08/31 08:35:54;;;;;;;;;32.75;26.00;;;;;20.81;70.35;102079.88;5122272;27;45402;-62
2021/08/31 08:38:20;;;;;;;;;29.25;26.75;;;;;20.85;68.23;102084.94;5122745;27;45487;-65
2021/08/31 08:40:45;;;;;;;;;31.25;23.75;;;;;20.98;69.09;102094.91;5122800;27;45345;-64
2021/08/31 08:43:14;;;;;;;;;24.75;24.00;;;;;21.07;68.28;102094.47;5123200;27;45295;-65
2021/08/31 08:45:43;;;;;;;;;22.25;20.00;;;;;21.10;67.39;102086.38;5104640;27;45429;-63
2021/08/31 08:48:17;;;;;;;;;24.75;21.75;;;;;21.22;67.73;102088.38;5104311;27;45572;-62
2021/08/31 08:50:43;;;;;;;;;24.75;20.50;;;;;21.24;66.63;102094.50;5122641;27;46365;-63
2021/08/31 08:53:10;;;;;;;;;25.50;18.75;;;;;21.16;66.39;102086.06;5122356;27;45439;-62
2021/08/31 08:55:36;;;;;;;;;20.25;17.75;;;;;21.06;67.08;102101.53;5122606;27;45313;-62
2021/08/31 08:58:01;;;;;;;;;30.25;22.00;;;;;21.08;66.55;102101.47;5122517;27;45458;-66
2021/08/31 09:00:49;;;;;;;;;32.50;23.75;;;;;21.20;67.13;102114.03;5122640;27;45434;-66
2021/08/31 09:03:20;;;;;;;;;31.75;25.00;;;;;21.26;66.03;102103.22;5098601;27;45735;-67
2021/08/31 09:05:45;;;;;;;;;36.75;30.25;;;;;21.30;66.61;102101.25;5114247;27;45452;-68
2021/08/31 09:08:10;;;;;;;;;32.50;28.00;;;;;21.30;66.49;102102.13;5120205;27;45586;-63
2021/08/31 09:10:36;;;;;;;;;28.50;21.75;;;;;21.32;65.79;102097.59;5121996;27;45709;-62
2021/08/31 09:13:02;;;;;;;;;28.00;25.25;;;;;21.38;65.50;102096.44;5122448;27;45468;-62
2021/08/31 09:15:31;;;;;;;;;28.25;23.00;;;;;21.46;65.83;102103.06;5122808;27;45324;-62
2021/08/31 09:20:45;;;;;;;;;26.50;23.00;;;;;21.44;63.64;102091.69;5122320;27;46078;-63
2021/08/31 09:23:17;;;;;;;;;26.75;22.75;;;;;21.39;63.72;102104.28;5122892;27;45246;-62
2021/08/31 09:25:45;;;;;;;;;27.50;21.75;;;;;21.35;64.09;102102.72;5122061;27;45364;-63
2021/08/31 09:28:24;;;;;;;;;32.25;25.50;;;;;21.36;64.38;102112.38;5121176;27;45449;-62
2021/08/31 09:31:03;;;;;;;;;27.00;25.25;;;;;21.39;64.58;102108.72;5103432;27;48073;-63
2021/08/31 09:33:34;;;;;;;;;27.75;25.00;;;;;21.40;64.92;102100.69;5120801;27;45382;-62
2021/08/31 09:36:12;;;;;;;;;21.25;18.25;;;;;21.54;64.17;102111.44;5120445;27;45393;-62
2021/08/31 09:38:43;;;;;;;;;30.75;24.75;;;;;21.73;64.60;102105.19;5118704;27;45393;-67
2021/08/31 09:41:09;;;;;;;;;42.00;30.75;;;;;21.89;63.40;102100.81;5117651;27;45405;-66
2021/08/31 09:43:34;;;;;;;;;28.00;25.75;;;;;22.04;61.76;102102.66;5121334;27;45505;-64
2021/08/31 09:46:00;;;;;;;;;30.75;27.00;;;;;22.05;62.23;102109.66;5122287;27;45298;-66
2021/08/31 09:48:25;;;;;;;;;23.00;21.25;;;;;22.08;62.80;102104.22;5121709;27;45237;-64
2021/08/31 09:50:55;;;;;;;;;22.00;21.00;;;;;22.09;62.25;102105.91;5121888;27;45459;-63
2021/08/31 09:53:26;;;;;;;;;26.00;22.50;;;;;22.06;62.82;102090.19;5121787;27;45495;-68
2021/08/31 09:56:01;;;;;;;;;28.25;26.50;;;;;22.12;63.01;102100.44;5121786;27;45238;-68
2021/08/31 09:58:26;;;;;;;;;36.00;25.75;;;;;22.11;62.53;102106.69;5102796;27;45734;-63
2021/08/31 10:00:54;;;;;;;;;29.75;26.00;;;;;22.14;62.25;102109.16;5102337;27;48174;-68
2021/08/31 10:03:21;;;;;;;;;23.00;18.50;;;;;22.13;62.06;102117.19;5121615;27;45464;-69
2021/08/31 10:05:48;;;;;;;;;37.00;26.25;;;;;22.00;59.86;102108.16;5121533;27;45331;-63
2021/08/31 10:08:15;;;;;;;;;24.00;22.50;;;;;21.98;60.63;102110.03;5120323;27;45259;-63
2021/08/31 10:10:42;;;;;;;;;30.25;25.50;;;;;22.07;61.45;102109.59;5116982;27;46418;-65
2021/08/31 10:13:11;;;;;;;;;26.00;23.50;;;;;22.25;61.36;102110.38;5121389;27;45330;-63
2021/08/31 10:15:45;;;;;;;;;19.75;19.00;;;;;22.54;59.56;102106.97;5121267;27;45458;-63
2021/08/31 10:18:11;;;;;;;;;25.25;25.00;;;;;22.73;61.18;102107.63;5121112;27;45474;-62
2021/08/31 10:20:48;;;;;;;;;22.50;19.50;;;;;22.73;58.84;102107.63;5120714;27;45692;-63
2021/08/31 10:23:22;;;;;;;;;23.00;21.00;;;;;22.80;59.51;102108.13;5119620;27;45696;-69
2021/08/31 10:25:48;;;;;;;;;20.75;17.50;;;;;22.86;57.02;102105.19;5101989;27;45271;-68
2021/08/31 10:28:23;;;;;;;;;22.50;19.00;;;;;22.86;57.38;102107.00;5120111;27;45317;-66
2021/08/31 10:30:50;;;;;;;;;27.25;22.25;;;;;22.83;56.85;102115.13;5120292;27;46316;-63
2021/08/31 10:33:39;;;;;;;;;26.25;21.00;;;;;22.95;57.85;102111.75;5115683;27;45758;-64
2021/08/31 10:36:10;;;;;;;;;23.50;17.25;;;;;23.07;56.13;102121.66;5121067;27;45347;-62
2021/08/31 10:38:43;;;;;;;;;23.75;21.50;;;;;23.19;57.84;102117.41;5119535;27;45246;-62
2021/08/31 10:41:45;;;;;;;;;24.50;22.25;;;;;23.26;57.24;102116.13;5120536;27;46513;-63
2021/08/31 10:44:13;;;;;;;;;20.75;20.50;;;;;23.34;56.72;102117.38;5118436;27;45345;-65
2021/08/31 10:46:57;;;;;;;;;24.00;21.25;;;;;23.42;57.17;102116.06;5119079;27;45298;-69
2021/08/31 10:49:22;;;;;;;;;26.25;22.25;;;;;23.51;57.31;102119.03;5117343;27;45763;-67
2021/08/31 10:52:03;;;;;;;;;17.75;15.50;;;;;23.62;57.09;102118.41;5118520;27;45411;-63
2021/08/31 10:54:46;;;;;;;;;20.50;17.50;;;;;23.52;56.76;102118.09;5116892;27;45460;-62
2021/08/31 10:57:36;;;;;;;;;23.75;20.50;;;;;23.58;56.24;102120.41;5118688;27;45429;-63
2021/08/31 11:00:14;;;;;;;;;17.25;17.25;;;;;23.81;54.30;102119.00;5119906;27;45323;-64
2021/08/31 11:02:48;;;;;;;;;19.25;16.50;;;;;24.02;53.58;102114.16;5118656;27;46419;-60
2021/08/31 11:05:26;;;;;;;;;20.00;17.75;;;;;24.30;53.55;102113.31;5098243;27;45429;-60
2021/08/31 11:07:59;;;;;;;;;20.25;19.00;;;;;24.56;51.61;102107.19;5115691;27;45309;-61
2021/08/31 11:10:36;;;;;;;;;22.50;19.25;;;;;24.79;51.89;102104.84;5118343;27;45358;-60
2021/08/31 11:13:12;;;;;;;;;18.25;17.00;;;;;24.92;51.05;102110.22;5118639;27;45437;-60